Time;durP1;ratioP1;P1;durP2;ratioP2;P2;SDS_P1;SDS_P2;PMS_P1;PMS_P2;Temp;Humidity;BMP_temperature;BMP_pressure;BME280_temperature;BME280_humidity;BME280_pressure;Samples;Min_cycle;Max_cycle;Signal;HPM_P1;HPM_P2
2022/06/29 00:01:43;;;;;;;4.60;2.60;;;;;;;19.02;61.05;101268.47;7401783;19;20015;-72
2022/06/29 00:04:14;;;;;;;3.13;2.30;;;;;;;18.96;61.52;101273.25;7401772;19;20414;-72
2022/06/29 00:06:43;;;;;;;2.63;2.42;;;;;;;18.90;61.61;101269.06;7400373;19;20039;-73
2022/06/29 00:09:11;;;;;;;3.40;2.42;;;;;;;18.83;61.88;101276.47;7401656;19;20031;-73
2022/06/29 00:11:40;;;;;;;2.58;2.38;;;;;;;18.82;62.25;101274.72;7401541;19;20031;-73
2022/06/29 00:14:08;;;;;;;2.60;2.40;;;;;;;18.80;62.11;101278.41;7401502;19;20070;-72
2022/06/29 00:16:37;;;;;;;2.80;2.55;;;;;;;18.75;62.28;101259.16;7400774;19;20031;-73
2022/06/29 00:19:05;;;;;;;2.55;2.13;;;;;;;18.69;62.50;101261.16;7401435;19;20488;-72
2022/06/29 00:21:36;;;;;;;2.72;2.28;;;;;;;18.64;62.84;101257.88;7401170;19;20028;-71
2022/06/29 00:24:05;;;;;;;3.40;2.75;;;;;;;18.63;62.80;101253.50;7401633;19;20114;-71
2022/06/29 00:26:33;;;;;;;2.47;2.28;;;;;;;18.59;63.04;101243.94;7399867;19;20022;-72
2022/06/29 00:29:02;;;;;;;2.85;2.42;;;;;;;18.53;63.33;101245.09;7400938;19;20103;-70
2022/06/29 00:31:30;;;;;;;2.95;2.75;;;;;;;18.47;63.49;101242.72;7400563;19;20015;-71
2022/06/29 00:33:59;;;;;;;2.40;2.20;;;;;;;18.43;63.86;101250.91;7397834;19;20011;-71
2022/06/29 00:36:27;;;;;;;2.97;2.78;;;;;;;18.40;63.81;101244.81;7399887;19;20018;-71
2022/06/29 00:38:58;;;;;;;3.33;2.75;;;;;;;18.38;64.08;101238.69;7398176;19;20025;-70
2022/06/29 00:41:27;;;;;;;2.92;2.72;;;;;;;18.38;64.15;101238.69;7398674;19;20011;-71
2022/06/29 00:43:55;;;;;;;2.75;2.55;;;;;;;18.36;63.97;101240.56;7400507;19;20032;-68
2022/06/29 00:46:24;;;;;;;2.90;2.60;;;;;;;18.34;64.52;101238.94;7399590;19;20039;-67
2022/06/29 00:48:53;;;;;;;2.67;2.45;;;;;;;18.34;64.36;101242.44;7399830;19;20018;-68
2022/06/29 00:51:23;;;;;;;2.63;2.42;;;;;;;18.32;64.89;101241.63;7397267;19;20010;-67
2022/06/29 00:53:54;;;;;;;3.35;3.05;;;;;;;18.28;64.89;101233.91;7399730;19;20422;-67
2022/06/29 00:56:27;;;;;;;2.75;2.50;;;;;;;18.26;64.83;101231.31;7395707;19;20022;-67
2022/06/29 00:58:58;;;;;;;4.18;2.97;;;;;;;18.21;64.78;101234.16;7400487;19;20018;-68
2022/06/29 01:01:28;;;;;;;2.60;2.40;;;;;;;18.17;65.24;101227.28;7397882;19;20376;-67
2022/06/29 01:03:56;;;;;;;2.60;2.40;;;;;;;18.12;65.40;101226.63;7399898;19;20018;-68
2022/06/29 01:06:25;;;;;;;2.92;2.63;;;;;;;18.10;65.58;101236.47;7399022;19;20023;-68
2022/06/29 01:08:54;;;;;;;2.80;2.60;;;;;;;18.10;65.50;101220.53;7401153;19;20089;-67
2022/06/29 01:11:25;;;;;;;2.75;2.55;;;;;;;18.08;65.80;101227.69;7401068;19;20031;-67
2022/06/29 01:13:53;;;;;;;2.25;2.15;;;;;;;18.04;65.65;101220.81;7401387;19;20039;-69
2022/06/29 01:16:22;;;;;;;2.90;2.33;;;;;;;18.03;66.01;101233.22;7399037;19;20526;-65
2022/06/29 01:18:50;;;;;;;3.05;2.45;;;;;;;18.01;66.18;101227.13;7398967;19;20086;-66
2022/06/29 01:21:22;;;;;;;2.80;2.60;;;;;;;18.00;65.99;101214.78;7396575;19;20019;-65
2022/06/29 01:23:53;;;;;;;2.75;2.55;;;;;;;17.99;66.24;101223.66;7399572;19;20010;-65
2022/06/29 01:26:22;;;;;;;2.63;2.42;;;;;;;17.97;66.37;101224.66;7398186;19;20556;-65
2022/06/29 01:28:50;;;;;;;2.70;2.50;;;;;;;17.94;66.23;101215.03;7396851;19;20019;-65
2022/06/29 01:31:20;;;;;;;2.80;2.60;;;;;;;17.94;66.50;101222.16;7396250;19;20019;-65
2022/06/29 01:33:50;;;;;;;2.50;2.30;;;;;;;17.90;66.38;101222.25;7398735;19;20094;-64
2022/06/29 01:36:19;;;;;;;3.45;2.38;;;;;;;17.85;66.77;101220.75;7398930;19;20036;-65
2022/06/29 01:38:48;;;;;;;3.35;2.33;;;;;;;17.82;66.95;101221.75;7398644;19;20018;-65
2022/06/29 01:41:32;;;;;;;2.80;2.58;;;;;;;17.80;67.09;101212.13;7396337;19;20023;-65
2022/06/29 01:44:01;;;;;;;2.97;2.72;;;;;;;17.80;66.98;101212.13;7399031;19;20022;-65
2022/06/29 01:46:29;;;;;;;4.05;2.70;;;;;;;17.77;67.50;101217.56;7397499;19;20018;-65
2022/06/29 01:48:58;;;;;;;3.63;2.30;;;;;;;17.79;67.33;101218.34;7397965;19;20461;-65
2022/06/29 01:51:26;;;;;;;2.60;2.40;;;;;;;17.79;67.29;101221.00;7397825;19;20392;-65
2022/06/29 01:53:55;;;;;;;3.05;2.30;;;;;;;17.74;67.49;101213.25;7397741;19;20374;-65
2022/06/29 01:56:26;;;;;;;2.90;2.33;;;;;;;17.76;67.54;101222.00;7397379;19;20360;-65
2022/06/29 01:58:54;;;;;;;2.95;2.72;;;;;;;17.75;67.48;101225.59;7398416;19;20018;-65
2022/06/29 02:01:23;;;;;;;2.80;2.60;;;;;;;17.71;67.64;101219.56;7397837;19;20025;-65
2022/06/29 02:03:51;;;;;;;2.97;2.47;;;;;;;17.68;67.90;101213.50;7395864;19;20039;-65
2022/06/29 02:06:20;;;;;;;3.33;2.67;;;;;;;17.63;67.80;101224.34;7397254;19;20018;-65
2022/06/29 02:08:49;;;;;;;3.22;2.58;;;;;;;17.60;67.83;101229.78;7397563;19;20044;-65
2022/06/29 02:11:17;;;;;;;3.35;2.80;;;;;;;17.55;67.95;101226.47;7397082;19;20383;-65
2022/06/29 02:13:49;;;;;;;3.40;3.10;;;;;;;17.52;67.92;101226.59;7398125;19;20025;-65
2022/06/29 02:16:18;;;;;;;2.90;2.70;;;;;;;17.49;68.39;101232.03;7396743;19;20027;-65
2022/06/29 02:18:46;;;;;;;3.10;2.78;;;;;;;17.45;68.46;101225.13;7396574;19;20023;-64
2022/06/29 02:21:15;;;;;;;4.72;3.22;;;;;;;17.41;68.62;101225.28;7395495;19;20026;-65
2022/06/29 02:23:44;;;;;;;5.30;2.70;;;;;;;17.43;68.79;101230.50;7395253;19;20019;-65
2022/06/29 02:26:13;;;;;;;2.67;2.47;;;;;;;17.41;68.58;101227.94;7397001;19;20014;-64
2022/06/29 02:28:42;;;;;;;2.80;2.60;;;;;;;17.39;68.76;101229.78;7394968;19;20078;-65
2022/06/29 02:36:34;;;;;;;4.25;3.03;;;;;;;17.35;69.08;101225.53;7392646;19;20070;-64
2022/06/29 02:39:03;;;;;;;2.92;2.63;;;;;;;17.33;69.18;101222.09;7395822;19;20524;-64
2022/06/29 02:41:31;;;;;;;3.22;2.65;;;;;;;17.30;69.13;101229.31;7395013;19;20027;-64
2022/06/29 02:44:01;;;;;;;3.40;2.95;;;;;;;17.27;69.51;101232.94;7394364;19;20007;-64
2022/06/29 02:46:32;;;;;;;3.78;3.00;;;;;;;17.24;69.77;101230.44;7394099;19;20359;-65
2022/06/29 02:49:00;;;;;;;2.92;2.72;;;;;;;17.21;69.44;101227.91;7394306;19;20378;-65
2022/06/29 02:51:29;;;;;;;3.20;3.00;;;;;;;17.17;69.85;101227.16;7396140;19;20026;-64
2022/06/29 02:53:57;;;;;;;3.50;3.20;;;;;;;17.14;69.77;101224.66;7394439;19;20018;-64
2022/06/29 02:56:26;;;;;;;2.97;2.78;;;;;;;17.12;70.16;101230.94;7395763;19;20423;-65
2022/06/29 02:58:54;;;;;;;3.95;3.20;;;;;;;17.07;70.01;101232.00;7393736;19;20414;-64
2022/06/29 03:01:23;;;;;;;3.25;2.95;;;;;;;17.06;70.22;101227.63;7395305;19;20017;-64
2022/06/29 03:03:54;;;;;;;3.20;2.90;;;;;;;17.05;70.53;101228.53;7395756;19;20018;-65
2022/06/29 03:06:22;;;;;;;3.65;3.33;;;;;;;17.04;70.60;101224.16;7394780;19;20362;-65
2022/06/29 03:08:51;;;;;;;3.50;3.08;;;;;;;17.01;70.40;101213.69;7393858;19;20026;-65
2022/06/29 03:11:19;;;;;;;3.60;3.13;;;;;;;16.99;70.94;101220.84;7395199;19;20434;-64
2022/06/29 03:13:48;;;;;;;4.03;3.42;;;;;;;16.97;71.04;101225.31;7395100;19;20409;-65
2022/06/29 03:16:16;;;;;;;3.55;3.20;;;;;;;16.94;70.96;101215.72;7394742;19;20424;-65
2022/06/29 03:18:45;;;;;;;3.47;2.90;;;;;;;16.93;70.96;101227.28;7391835;19;20023;-64
2022/06/29 03:21:16;;;;;;;3.65;3.35;;;;;;;16.92;71.29;101222.88;7394897;19;20078;-64
2022/06/29 03:23:45;;;;;;;6.20;3.88;;;;;;;16.89;71.34;101219.47;7395500;19;20031;-64
2022/06/29 03:26:14;;;;;;;3.30;2.90;;;;;;;16.87;71.39;101224.84;7395103;19;20031;-64
2022/06/29 03:28:42;;;;;;;4.20;3.13;;;;;;;16.86;71.49;101230.19;7393037;19;20428;-65
2022/06/29 03:31:11;;;;;;;3.60;2.97;;;;;;;16.84;71.61;101232.88;7392699;19;20018;-65
2022/06/29 03:33:39;;;;;;;3.20;2.83;;;;;;;16.83;71.52;101228.50;7394621;19;20022;-65
2022/06/29 03:36:08;;;;;;;3.45;3.15;;;;;;;16.83;71.63;101231.16;7394531;19;20035;-65
2022/06/29 03:38:39;;;;;;;4.22;3.28;;;;;;;16.83;71.79;101238.25;7392093;19;20364;-65
2022/06/29 03:41:08;;;;;;;3.85;3.55;;;;;;;16.83;71.85;101241.75;7393025;19;20015;-65
2022/06/29 03:43:36;;;;;;;3.78;3.10;;;;;;;16.83;71.59;101241.75;7394513;19;20018;-65
2022/06/29 03:46:05;;;;;;;3.45;3.15;;;;;;;16.82;72.10;101244.47;7392843;19;20015;-65
2022/06/29 03:48:33;;;;;;;3.90;3.60;;;;;;;16.83;72.20;101238.25;7391852;19;20015;-65
2022/06/29 03:51:02;;;;;;;5.15;3.50;;;;;;;16.83;71.84;101228.50;7392549;19;20023;-65
2022/06/29 03:53:30;;;;;;;5.30;3.80;;;;;;;16.85;72.20;101228.47;7392136;19;20086;-64
2022/06/29 03:56:01;;;;;;;3.90;3.47;;;;;;;16.88;72.33;101228.34;7393591;19;20503;-63
2022/06/29 03:58:30;;;;;;;3.85;3.42;;;;;;;16.90;72.37;101231.78;7391926;19;20019;-65
2022/06/29 04:00:58;;;;;;;3.95;3.55;;;;;;;16.93;72.52;101240.53;7391238;19;20031;-65
2022/06/29 04:03:27;;;;;;;4.43;3.90;;;;;;;16.97;72.45;101237.72;7391775;19;20023;-64
2022/06/29 04:05:55;;;;;;;5.65;4.07;;;;;;;17.02;72.72;101238.41;7393234;19;20082;-64
2022/06/29 04:08:24;;;;;;;4.68;4.28;;;;;;;17.07;72.83;101237.31;7391118;19;20027;-65
2022/06/29 04:10:52;;;;;;;4.20;3.80;;;;;;;17.13;72.60;101240.63;7391153;19;20018;-65
2022/06/29 04:13:24;;;;;;;4.30;3.70;;;;;;;17.16;72.76;101240.47;7392704;19;20529;-65
2022/06/29 04:15:52;;;;;;;4.10;3.63;;;;;;;17.20;72.88;101244.72;7393454;19;20025;-65
2022/06/29 04:18:21;;;;;;;4.40;3.78;;;;;;;17.24;73.00;101246.34;7391303;19;20074;-64
2022/06/29 04:23:30;;;;;;;4.18;3.80;;;;;;;17.31;73.00;101242.50;7393348;19;20026;-65
2022/06/29 04:25:58;;;;;;;4.82;4.32;;;;;;;17.36;73.00;101247.59;7392682;19;20373;-65
2022/06/29 04:28:30;;;;;;;5.70;4.53;;;;;;;17.40;72.80;101247.44;7390598;19;20383;-65
2022/06/29 04:30:58;;;;;;;5.20;3.53;;;;;;;17.46;72.91;101256.03;7394637;19;20039;-65
2022/06/29 04:33:27;;;;;;;4.70;4.22;;;;;;;17.51;73.03;101249.59;7396272;19;20023;-65
2022/06/29 04:35:55;;;;;;;6.10;4.35;;;;;;;17.56;72.73;101257.38;7399293;19;20373;-65
2022/06/29 04:38:24;;;;;;;4.95;3.85;;;;;;;17.61;72.97;101258.03;7397424;19;20033;-65
2022/06/29 04:40:52;;;;;;;5.50;4.85;;;;;;;17.66;73.11;101255.19;7397446;19;20015;-65
2022/06/29 04:43:21;;;;;;;6.57;4.40;;;;;;;17.68;73.02;101251.53;7399656;19;20391;-65
2022/06/29 04:48:33;;;;;;;5.55;4.63;;;;;;;17.76;73.03;101243.25;7397683;19;20015;-65
2022/06/29 04:51:01;;;;;;;5.63;4.20;;;;;;;17.81;72.99;101240.41;7396353;19;20018;-65
2022/06/29 04:53:30;;;;;;;5.82;5.32;;;;;;;17.85;73.36;101242.81;7399485;19;20090;-66
2022/06/29 04:55:58;;;;;;;6.50;4.85;;;;;;;17.93;73.30;101245.13;7399279;19;20025;-65
2022/06/29 04:58:27;;;;;;;8.20;5.32;;;;;;;18.01;73.25;101229.78;7395643;19;20032;-65
2022/06/29 05:00:58;;;;;;;6.25;5.65;;;;;;;18.11;73.04;101224.03;7396335;19;20015;-67
2022/06/29 05:03:26;;;;;;;5.35;4.80;;;;;;;18.18;73.33;101231.63;7396737;19;20081;-65
2022/06/29 05:05:55;;;;;;;6.00;5.45;;;;;;;18.28;73.20;101228.59;7394691;19;20018;-64
2022/06/29 05:08:24;;;;;;;6.53;5.82;;;;;;;18.34;72.83;101229.16;7394319;19;20022;-65
2022/06/29 05:10:53;;;;;;;6.50;5.90;;;;;;;18.42;72.83;101220.81;7395440;19;20031;-65
2022/06/29 05:13:21;;;;;;;6.88;6.18;;;;;;;18.51;73.19;101224.84;7398412;19;20021;-65
2022/06/29 05:15:50;;;;;;;7.50;6.10;;;;;;;18.59;73.14;101228.00;7395421;19;20018;-65
2022/06/29 05:18:21;;;;;;;7.30;6.13;;;;;;;18.68;72.82;101221.38;7394672;19;20347;-65
2022/06/29 05:20:49;;;;;;;6.80;5.70;;;;;;;18.79;72.66;101218.19;7394717;19;20015;-66
2022/06/29 05:23:18;;;;;;;6.63;6.03;;;;;;;18.89;72.24;101219.47;7397638;19;20022;-64
2022/06/29 05:25:47;;;;;;;7.85;6.78;;;;;;;18.98;71.96;101219.06;7398178;19;20082;-63
2022/06/29 05:28:15;;;;;;;6.20;5.60;;;;;;;19.10;71.78;101206.09;7395233;19;20504;-65
2022/06/29 05:30:44;;;;;;;6.07;5.18;;;;;;;19.22;71.81;101202.78;7398089;19;20022;-64
2022/06/29 05:33:12;;;;;;;5.30;4.80;;;;;;;19.33;71.23;101200.44;7398003;19;20078;-65
2022/06/29 05:35:43;;;;;;;5.30;4.47;;;;;;;19.45;70.71;101201.63;7397995;19;20028;-65
2022/06/29 05:38:12;;;;;;;5.07;4.60;;;;;;;19.56;70.61;101210.84;7396651;19;20096;-67
2022/06/29 05:40:42;;;;;;;5.40;4.50;;;;;;;19.64;70.04;101211.31;7396035;19;20468;-64
2022/06/29 05:43:10;;;;;;;5.13;4.10;;;;;;;19.75;69.61;101216.94;7394902;19;20501;-65
2022/06/29 05:45:39;;;;;;;5.47;4.10;;;;;;;19.84;69.96;101223.56;7394252;19;20506;-65
2022/06/29 05:48:08;;;;;;;5.10;4.30;;;;;;;19.93;69.45;101228.44;7395136;19;20382;-65
2022/06/29 05:50:37;;;;;;;4.85;4.45;;;;;;;20.04;68.81;101219.00;7397438;19;20029;-65
2022/06/29 05:53:08;;;;;;;5.85;3.95;;;;;;;20.13;68.33;101221.16;7394776;19;20514;-65
2022/06/29 05:55:36;;;;;;;5.97;5.35;;;;;;;20.23;68.39;101222.34;7395489;19;20022;-65
2022/06/29 05:58:05;;;;;;;5.32;4.82;;;;;;;20.30;67.91;101207.75;7395126;19;20014;-65
2022/06/29 06:00:33;;;;;;;7.68;4.47;;;;;;;20.39;67.93;101197.56;7397435;19;20216;-65
2022/06/29 06:03:02;;;;;;;5.57;4.80;;;;;;;20.47;67.65;101198.84;7395671;19;20006;-65
2022/06/29 06:05:30;;;;;;;16.88;11.73;;;;;;;20.56;67.40;101188.59;7394227;19;20023;-64
2022/06/29 06:07:59;;;;;;;18.15;13.20;;;;;;;20.64;66.75;101191.69;7394508;19;20022;-64
2022/06/29 06:10:30;;;;;;;8.18;7.38;;;;;;;20.71;66.70;101184.22;7396068;19;20014;-64
2022/06/29 06:12:58;;;;;;;9.20;8.20;;;;;;;20.82;66.27;101189.81;7396086;19;20462;-64
2022/06/29 06:15:27;;;;;;;9.65;7.25;;;;;;;20.90;66.19;101192.03;7395046;19;20011;-64
2022/06/29 06:17:55;;;;;;;7.95;6.93;;;;;;;20.98;66.18;101200.44;7394502;19;20094;-65
2022/06/29 06:20:24;;;;;;;6.65;5.22;;;;;;;21.05;65.58;101201.78;7395135;19;20033;-64
2022/06/29 06:22:52;;;;;;;5.38;4.88;;;;;;;21.12;65.08;101202.31;7394834;19;20039;-65
2022/06/29 06:25:21;;;;;;;5.25;4.72;;;;;;;21.20;65.17;101204.50;7394315;19;20044;-65
2022/06/29 06:27:52;;;;;;;6.30;4.57;;;;;;;21.25;64.75;101189.94;7394045;19;20461;-64
2022/06/29 06:30:21;;;;;;;4.40;4.00;;;;;;;21.32;64.13;101198.44;7393573;19;20516;-64
2022/06/29 06:32:49;;;;;;;4.30;3.50;;;;;;;21.32;63.24;101198.44;7396140;19;20025;-67
2022/06/29 06:35:19;;;;;;;4.63;3.95;;;;;;;21.40;62.77;101212.19;7393781;19;20112;-67
2022/06/29 06:37:47;;;;;;;4.05;2.88;;;;;;;21.45;62.14;101209.25;7394141;19;20380;-64
2022/06/29 06:43:00;;;;;;;4.30;3.65;;;;;;;21.56;60.96;101201.47;7393744;19;20049;-65
2022/06/29 06:45:29;;;;;;;4.53;3.40;;;;;;;21.64;60.97;101207.19;7394117;19;20018;-65
2022/06/29 06:47:57;;;;;;;8.13;3.50;;;;;;;21.69;59.88;101198.06;7393295;19;20026;-65
2022/06/29 06:50:26;;;;;;;3.67;3.10;;;;;;;21.77;59.53;101198.44;7393829;19;20025;-66
2022/06/29 06:52:54;;;;;;;4.68;2.85;;;;;;;21.82;59.31;101204.34;7394253;19;20021;-65
2022/06/29 06:55:23;;;;;;;3.38;3.03;;;;;;;21.88;59.31;101200.44;7395077;19;20027;-65
2022/06/29 06:57:51;;;;;;;4.82;2.45;;;;;;;21.94;59.30;101198.25;7394348;19;20014;-65
2022/06/29 07:00:23;;;;;;;4.00;2.70;;;;;;;22.02;58.73;101191.56;7394907;19;20014;-65
2022/06/29 07:02:51;;;;;;;3.20;2.40;;;;;;;22.09;58.07;101183.06;7394394;19;20014;-65
2022/06/29 07:05:20;;;;;;;2.60;2.40;;;;;;;22.17;57.84;101176.38;7395081;19;20025;-66
2022/06/29 07:07:48;;;;;;;3.08;2.38;;;;;;;22.23;57.20;101183.97;7393931;19;20022;-65
2022/06/29 07:10:17;;;;;;;3.15;2.10;;;;;;;22.29;56.77;101171.09;7393664;19;20018;-65
2022/06/29 07:12:45;;;;;;;2.97;2.28;;;;;;;22.35;56.82;101174.34;7392880;19;20010;-65
2022/06/29 07:15:14;;;;;;;2.88;1.50;;;;;;;22.41;56.10;101177.50;7392558;19;20018;-64
2022/06/29 07:17:45;;;;;;;2.42;1.67;;;;;;;22.50;55.24;101178.72;7393520;19;20019;-64
2022/06/29 07:20:14;;;;;;;2.58;2.08;;;;;;;22.57;54.64;101174.69;7393118;19;20018;-65
2022/06/29 07:22:42;;;;;;;4.50;1.70;;;;;;;22.65;53.94;101181.34;7392898;19;20078;-65
2022/06/29 07:25:11;;;;;;;4.68;1.40;;;;;;;22.74;53.66;101188.75;7392734;19;20035;-65
2022/06/29 07:27:46;;;;;;;3.53;1.98;;;;;;;22.81;53.02;101187.41;7392707;19;20019;-65
2022/06/29 07:30:15;;;;;;;3.03;2.05;;;;;;;22.88;52.66;101180.66;7393304;19;20026;-65
2022/06/29 07:32:46;;;;;;;4.45;2.10;;;;;;;22.93;51.73;101183.03;7392259;19;20077;-64
2022/06/29 07:35:14;;;;;;;2.22;1.90;;;;;;;22.98;51.89;101178.22;7394399;19;20022;-65
2022/06/29 07:37:44;;;;;;;2.22;1.73;;;;;;;23.05;51.90;101176.88;7391702;19;20511;-65
2022/06/29 07:40:14;;;;;;;2.97;1.90;;;;;;;23.15;51.75;101186.94;7391857;19;20019;-65
2022/06/29 07:42:48;;;;;;;2.38;1.63;;;;;;;23.21;50.69;101187.41;7391282;19;20017;-65
2022/06/29 07:45:17;;;;;;;2.30;1.83;;;;;;;23.30;50.74;101177.88;7394111;19;20157;-64
2022/06/29 07:47:49;;;;;;;5.50;1.48;;;;;;;23.37;50.12;101173.81;7392401;19;20024;-64
2022/06/29 07:50:17;;;;;;;2.08;1.40;;;;;;;23.44;49.77;101176.91;7392302;19;20018;-66
2022/06/29 07:52:46;;;;;;;3.45;1.35;;;;;;;23.51;48.95;101172.03;7393801;19;20390;-66
2022/06/29 07:55:14;;;;;;;2.53;1.30;;;;;;;23.57;48.23;101175.13;7391704;19;20027;-66
2022/06/29 07:57:44;;;;;;;2.63;1.20;;;;;;;23.62;47.82;101164.09;7392415;19;20032;-67
2022/06/29 08:00:13;;;;;;;2.20;1.20;;;;;;;23.66;47.57;101170.09;7393024;19;20493;-66
2022/06/29 08:02:42;;;;;;;3.25;1.50;;;;;;;23.70;47.31;101171.59;7393236;19;20074;-65
2022/06/29 08:05:13;;;;;;;2.45;1.33;;;;;;;23.72;46.97;101169.63;7395826;19;20423;-66
2022/06/29 08:07:42;;;;;;;3.40;1.20;;;;;;;23.76;46.52;101171.16;7398769;19;20019;-66
2022/06/29 08:10:11;;;;;;;4.72;1.50;;;;;;;23.81;46.77;101178.84;7398952;19;20034;-66
2022/06/29 08:12:40;;;;;;;9.07;2.72;;;;;;;23.83;46.53;101172.41;7400568;19;20027;-66
2022/06/29 08:15:10;;;;;;;3.33;1.60;;;;;;;23.84;45.76;101176.81;7397623;19;20010;-66
2022/06/29 08:17:38;;;;;;;1.38;1.13;;;;;;;23.86;45.88;101182.03;7398277;19;20027;-67
2022/06/29 08:20:08;;;;;;;2.08;1.17;;;;;;;23.87;45.24;101184.63;7397410;19;20035;-66
2022/06/29 08:22:39;;;;;;;7.68;1.80;;;;;;;23.89;44.91;101181.84;7396880;19;20014;-72
2022/06/29 08:25:08;;;;;;;5.15;1.30;;;;;;;23.90;45.09;101178.22;7399192;19;20417;-72
2022/06/29 08:27:37;;;;;;;3.75;1.95;;;;;;;23.91;44.91;101170.09;7398786;19;20018;-72
2022/06/29 08:30:06;;;;;;;3.13;1.40;;;;;;;23.91;45.29;101169.25;7397137;19;20086;-72
2022/06/29 08:32:34;;;;;;;2.70;1.80;;;;;;;23.91;44.98;101166.56;7399065;19;20014;-71
2022/06/29 08:35:03;;;;;;;5.68;1.85;;;;;;;23.95;45.53;101172.53;7397776;19;20011;-71
2022/06/29 08:37:32;;;;;;;5.53;1.80;;;;;;;23.98;45.47;101172.31;7398267;19;20424;-71
2022/06/29 08:40:03;;;;;;;4.15;2.05;;;;;;;24.01;45.68;101164.06;7398650;19;20025;-72
2022/06/29 08:42:32;;;;;;;4.13;2.35;;;;;;;24.05;45.78;101168.25;7397161;19;20035;-72
2022/06/29 08:45:00;;;;;;;4.05;2.30;;;;;;;24.04;45.34;101159.34;7397316;19;20018;-72
2022/06/29 08:47:29;;;;;;;3.55;2.25;;;;;;;24.08;45.66;101168.00;7398808;19;20015;-72
2022/06/29 08:49:58;;;;;;;8.85;2.72;;;;;;;24.10;45.72;101167.91;7397304;19;20022;-72
2022/06/29 08:52:28;;;;;;;6.20;2.80;;;;;;;24.16;46.39;101168.31;7397080;19;20018;-74
2022/06/29 08:54:57;;;;;;;2.58;2.20;;;;;;;24.22;45.53;101178.56;7397829;19;20365;-70
2022/06/29 08:57:28;;;;;;;4.45;2.30;;;;;;;24.29;45.49;101176.31;7397160;19;20019;-71
2022/06/29 08:59:57;;;;;;;3.88;3.25;;;;;;;24.33;45.76;101179.63;7397723;19;20031;-71
2022/06/29 09:02:26;;;;;;;3.28;2.78;;;;;;;24.42;45.71;101183.47;7396793;19;20078;-71
2022/06/29 09:04:54;;;;;;;2.95;2.72;;;;;;;24.50;45.43;101183.75;7399076;19;20015;-69
2022/06/29 09:07:23;;;;;;;10.70;4.07;;;;;;;24.57;44.58;101182.34;7398741;19;20041;-69
2022/06/29 09:10:02;;;;;;;3.97;2.40;;;;;;;24.66;43.60;101181.66;7397026;19;20025;-70
2022/06/29 09:12:34;;;;;;;5.05;2.28;;;;;;;24.74;43.59;101183.78;7396483;19;20011;-68
2022/06/29 09:15:03;;;;;;;11.65;2.78;;;;;;;24.82;43.59;101177.81;7398156;19;20021;-69
2022/06/29 09:17:33;;;;;;;4.60;2.05;;;;;;;24.88;43.22;101180.06;7395557;19;20513;-69
2022/06/29 09:20:02;;;;;;;3.60;1.88;;;;;;;24.95;42.50;101175.09;7395397;19;20019;-70
2022/06/29 09:22:31;;;;;;;7.63;2.15;;;;;;;24.98;42.27;101172.16;7398334;19;20014;-70
2022/06/29 09:25:00;;;;;;;4.07;2.20;;;;;;;24.99;42.35;101173.88;7397937;19;20034;-70
2022/06/29 09:27:28;;;;;;;2.70;2.45;;;;;;;25.01;42.26;101162.06;7395151;19;20082;-70
2022/06/29 09:29:59;;;;;;;2.10;1.90;;;;;;;25.05;42.41;101166.22;7395770;19;20147;-68
2022/06/29 09:32:30;;;;;;;2.83;2.20;;;;;;;25.09;42.21;101161.47;7396763;19;20091;-69
2022/06/29 09:34:58;;;;;;;6.70;2.17;;;;;;;25.11;42.45;101155.97;7398691;19;20015;-70
2022/06/29 09:37:27;;;;;;;4.07;2.70;;;;;;;25.11;42.61;101162.22;7395334;19;20390;-70
2022/06/29 09:39:57;;;;;;;6.13;2.05;;;;;;;25.11;42.93;101154.16;7395834;19;20047;-69
2022/06/29 09:42:27;;;;;;;7.32;3.10;;;;;;;25.12;42.62;101141.59;7396378;19;20032;-69
2022/06/29 09:44:58;;;;;;;4.40;2.20;;;;;;;25.14;42.39;101148.53;7395662;19;20037;-70
2022/06/29 09:47:27;;;;;;;2.33;1.90;;;;;;;25.13;42.48;101154.88;7395473;19;20018;-69
2022/06/29 09:49:59;;;;;;;4.10;2.47;;;;;;;25.11;43.02;101147.91;7395045;19;20022;-69
2022/06/29 09:52:29;;;;;;;4.88;2.58;;;;;;;25.11;42.53;101147.91;7398014;19;20039;-69
2022/06/29 09:54:59;;;;;;;6.65;2.33;;;;;;;25.09;42.54;101153.41;7398195;19;20010;-68
2022/06/29 09:57:32;;;;;;;4.90;1.98;;;;;;;25.03;42.74;101152.06;7395062;19;20014;-69
2022/06/29 10:02:48;;;;;;;3.60;1.67;;;;;;;24.88;42.49;101155.91;7397793;19;20014;-69
2022/06/29 10:05:19;;;;;;;4.47;2.20;;;;;;;24.88;42.69;101158.59;7396174;19;20019;-69
2022/06/29 10:07:49;;;;;;;3.35;1.95;;;;;;;24.84;43.18;101157.97;7395934;19;20040;-69
2022/06/29 10:10:19;;;;;;;4.95;2.50;;;;;;;24.80;43.13;101159.16;7396343;19;20022;-69
2022/06/29 10:16:27;;;;;;;2.03;1.83;;;;;;;24.65;43.74;101142.41;7397451;19;20011;-69
2022/06/29 10:19:25;;;;;;;2.13;1.60;;;;;;;24.59;43.84;101141.97;7398890;19;20019;-68
2022/06/29 10:21:54;;;;;;;4.95;2.08;;;;;;;24.51;44.43;101148.75;7395840;19;20018;-70
2022/06/29 10:24:22;;;;;;;2.40;1.95;;;;;;;24.45;44.60;101141.16;7396785;19;20011;-70
2022/06/29 10:26:53;;;;;;;4.15;1.88;;;;;;;24.41;44.72;101134.34;7395281;19;20074;-69
2022/06/29 10:29:37;;;;;;;5.68;2.10;;;;;;;24.42;44.80;101141.41;7392622;19;20055;-70
2022/06/29 10:32:19;;;;;;;3.13;1.67;;;;;;;24.38;44.98;101138.09;7393566;19;20070;-69
2022/06/29 10:37:29;;;;;;;3.20;2.00;;;;;;;24.37;44.98;101140.91;7395795;19;20496;-69
2022/06/29 10:40:00;;;;;;;2.88;2.50;;;;;;;24.39;44.90;101144.31;7396761;19;20078;-70
2022/06/29 10:45:24;;;;;;;4.03;2.20;;;;;;;24.49;44.58;101139.13;7396917;19;20342;-68
2022/06/29 10:48:16;;;;;;;2.17;1.90;;;;;;;24.55;44.51;101134.19;7394343;19;20011;-69
2022/06/29 10:50:46;;;;;;;4.85;2.10;;;;;;;24.59;44.41;101131.25;7393742;19;20382;-70
2022/06/29 10:53:17;;;;;;;1.73;1.52;;;;;;;24.66;44.69;101127.19;7396802;19;20074;-70
2022/06/29 10:55:48;;;;;;;2.67;1.95;;;;;;;24.72;44.37;101121.34;7394408;19;20422;-70
2022/06/29 10:58:17;;;;;;;4.13;2.00;;;;;;;24.77;44.15;101120.97;7394743;19;20085;-69
2022/06/29 11:00:47;;;;;;;2.85;2.10;;;;;;;24.79;44.38;101116.38;7395434;19;20574;-69
2022/06/29 11:03:22;;;;;;;2.25;1.70;;;;;;;24.81;43.90;101117.13;7395301;19;20015;-71
2022/06/29 11:13:59;;;;;;;2.30;2.10;;;;;;;25.05;43.59;101091.06;7394676;19;20014;-69
2022/06/29 11:16:33;;;;;;;4.18;2.40;;;;;;;25.15;43.38;101085.81;7393603;19;20025;-69
2022/06/29 11:19:05;;;;;;;4.13;2.60;;;;;;;25.24;43.12;101081.56;7393293;19;20014;-70
2022/06/29 11:21:34;;;;;;;3.83;2.00;;;;;;;25.31;43.08;101077.44;7393299;19;20097;-71
2022/06/29 11:24:08;;;;;;;3.65;2.15;;;;;;;25.40;43.52;101072.31;7394432;19;20038;-71
2022/06/29 11:26:37;;;;;;;3.05;2.70;;;;;;;25.50;43.08;101062.53;7393264;19;20488;-70
2022/06/29 11:29:06;;;;;;;2.53;2.20;;;;;;;25.58;42.68;101067.31;7393422;19;20135;-71
2022/06/29 11:31:34;;;;;;;3.30;1.90;;;;;;;25.70;42.55;101069.00;7392018;19;20037;-70
2022/06/29 11:34:05;;;;;;;2.35;2.15;;;;;;;25.80;42.77;101064.59;7392927;19;20485;-70
2022/06/29 11:36:35;;;;;;;4.05;2.22;;;;;;;25.95;42.75;101058.94;7391809;19;20030;-70
2022/06/29 11:39:09;;;;;;;2.63;2.13;;;;;;;26.08;42.22;101053.44;7393196;19;20078;-70
2022/06/29 11:44:27;;;;;;;4.35;2.45;;;;;;;26.25;41.90;101052.03;7401466;19;20095;-70
2022/06/29 11:46:57;;;;;;;2.90;2.40;;;;;;;26.32;41.49;101047.84;7397331;19;20020;-70
2022/06/29 11:49:39;;;;;;;2.10;1.90;;;;;;;26.41;41.97;101046.22;7401096;19;20026;-70
2022/06/29 11:52:13;;;;;;;2.42;2.20;;;;;;;26.48;41.71;101042.03;7401033;19;20524;-71
2022/06/29 11:54:43;;;;;;;;;;;;;;;26.53;41.24;101049.69;7402214;19;20049;-71
2022/06/29 11:57:15;;;;;;;2.80;1.90;;;;;;;26.53;41.33;101044.31;7398936;19;19919;-70
2022/06/29 11:59:45;;;;;;;2.20;2.00;;;;;;;26.52;41.22;101040.78;7401825;19;20018;-71
2022/06/29 12:02:14;;;;;;;3.55;1.88;;;;;;;26.56;40.87;101038.69;7400962;19;20019;-70
2022/06/29 12:04:47;;;;;;;2.67;2.08;;;;;;;26.62;39.73;101036.31;7400999;19;20054;-70
2022/06/29 12:07:17;;;;;;;3.90;1.93;;;;;;;26.67;39.81;101030.56;7398517;19;20022;-70
2022/06/29 12:09:46;;;;;;;1.70;1.60;;;;;;;26.70;39.53;101038.34;7400621;19;20021;-71
2022/06/29 12:12:15;;;;;;;2.72;2.10;;;;;;;26.71;39.68;101039.22;7400611;19;20014;-69